Weather History for KAJZ - November, 2012

Change the Weather History Date:

Thursday, November 15, 2012

  Actual Average (KMTJ) Record (KMTJ)
Temperature  
Mean Temperature 41 °F 38 °F  
Max Temperature 57 °F 50 °F 64 °F (1998)
Min Temperature 25 °F 25 °F 15 °F (1997)
Degree Days  
Heating Degree Days 24 27  
Month to date heating degree days 365  
Since 1 July heating degree days 956  
Cooling Degree Days 0 0  
Month to date cooling degree days 0  
Year to date cooling degree days 643  
Moisture  
Dew Point 22 °F    
Average Humidity 56    
Maximum Humidity 84    
Minimum Humidity 20    
Precipitation  
Precipitation 0.00 in 0.03 in 0.24 in (1996)
Month to date precipitation 0.44  
Year to date precipitation 10.28  
Sea Level Pressure  
Sea Level Pressure 30.32 in    
Wind  
Wind Speed 2 mph ()    
Max Wind Speed 8 mph    
Max Gust Speed -    
Visibility 10.0 miles    
Events      
T = Trace of Precipitation, MM = Missing Value Source: Averaged Metar Reports

Daily Weather History Graph

Daily Weather History Graph

Search for Another Location

Airport or City:

Trip Planner

Search our weather history database for the weather conditions in past years. The results will help you decide how hot, cold, wet, or windy it might be!

Date:

Astronomy

Nov. 15, 2012 Rise Set
Actual Time 6:55 AM MST 4:58 PM MST
Civil Twilight 6:26 AM MST 5:26 PM MST
Nautical Twilight 5:54 AM MST 5:58 PM MST
Astronomical Twilight 5:23 AM MST 6:30 PM MST
Moon 8:53 AM MST (11/15) 6:53 PM MST (11/15)
Length of Visible Light 10h 59m
Length of Day
10h 02m
Waxing Crescent, 5% of the Moon is Illuminated
Nov 15
Waxing Crescent
Nov 20
First Quarter
Nov 28
Full
Dec 6
Last Quarter
Dec 13
New

Hourly Weather History & Observations

Time (MST) Temp. Windchill Dew Point Humidity Pressure Visibility Wind Dir Wind Speed Gust Speed Precip Events Conditions
12:15 AM 33.4 °F 30.4 °F 24.1 °F 69% 30.28 in 10.0 mi ENE 3.5 mph - N/A   Scattered Clouds
12:35 AM 34.5 °F 31.6 °F 24.6 °F 67% 30.29 in 10.0 mi ENE 3.5 mph - N/A   Clear
12:55 AM 33.1 °F - 23.7 °F 68% 30.29 in 10.0 mi Calm Calm - N/A   Clear
1:15 AM 33.4 °F - 23.9 °F 68% 30.30 in 10.0 mi Calm Calm - N/A   Clear
1:55 AM 32.2 °F - 23.4 °F 70% 30.30 in 10.0 mi Calm Calm - N/A   Clear
2:15 AM 32.0 °F - 24.3 °F 73% 30.30 in 10.0 mi Calm Calm - N/A   Clear
2:35 AM 33.6 °F - 23.9 °F 68% 30.31 in 10.0 mi Calm Calm - N/A   Clear
2:55 AM 31.5 °F - 22.6 °F 70% 30.31 in 10.0 mi Calm Calm - N/A   Clear
3:15 AM 30.0 °F 26.5 °F 23.2 °F 76% 30.31 in 10.0 mi NNE 3.5 mph - N/A   Clear
3:35 AM 28.4 °F 23.3 °F 21.9 °F 77% 30.31 in 10.0 mi ENE 4.6 mph - N/A   Clear
3:55 AM 30.4 °F - 22.6 °F 73% 30.31 in 10.0 mi Calm Calm - N/A   Clear
4:15 AM 30.0 °F - 22.1 °F 72% 30.32 in 10.0 mi Calm Calm - N/A   Clear
4:35 AM 28.2 °F - 21.4 °F 76% 30.32 in 10.0 mi Calm Calm - N/A   Clear
4:55 AM 26.6 °F - 21.2 °F 80% 30.33 in 10.0 mi Calm Calm - N/A   Clear
5:15 AM 26.6 °F - 21.9 °F 82% 30.33 in 10.0 mi Calm Calm - N/A   Clear
5:35 AM 25.9 °F 21.7 °F 21.7 °F 84% 30.33 in 10.0 mi NNE 3.5 mph - N/A   Clear
5:55 AM 26.6 °F 21.2 °F 21.2 °F 80% 30.34 in 10.0 mi ENE 4.6 mph - N/A   Clear
6:15 AM 26.4 °F 22.4 °F 21.2 °F 81% 30.34 in 10.0 mi NE 3.5 mph - N/A   Clear
6:35 AM 26.4 °F 19.8 °F 21.0 °F 80% 30.35 in 10.0 mi NE 5.8 mph - N/A   Clear
6:55 AM 26.4 °F 20.9 °F 21.0 °F 80% 30.35 in 10.0 mi NE 4.6 mph - N/A   Clear
7:15 AM 27.5 °F - 21.6 °F 78% 30.36 in 10.0 mi Calm Calm - N/A   Clear
7:35 AM 27.3 °F - 21.6 °F 79% 30.36 in 10.0 mi Calm Calm - N/A   Clear
7:55 AM 26.2 °F - 20.7 °F 79% 30.38 in 10.0 mi Calm Calm - N/A   Clear
8:15 AM 27.7 °F - 21.7 °F 78% 30.38 in 10.0 mi Calm Calm - N/A   Clear
8:35 AM 32.0 °F - 23.4 °F 70% 30.38 in 10.0 mi Calm Calm - N/A   Clear
8:55 AM 33.8 °F - 23.7 °F 67% 30.39 in 10.0 mi Calm Calm - N/A   Clear
9:15 AM 35.1 °F - 24.3 °F 65% 30.38 in 10.0 mi Calm Calm - N/A   Clear
9:35 AM 36.5 °F - 24.1 °F 61% 30.39 in 10.0 mi Calm Calm - N/A   Clear
9:55 AM 38.5 °F - 24.8 °F 58% 30.38 in 10.0 mi Calm Calm - N/A   Clear
10:15 AM 39.7 °F - 24.8 °F 55% 30.38 in 10.0 mi Calm Calm - N/A   Clear
10:35 AM 41.4 °F - 23.7 °F 50% 30.38 in 10.0 mi Calm Calm - N/A   Clear
10:55 AM 43.2 °F - 23.4 °F 46% 30.38 in 10.0 mi Calm Calm - N/A   Clear
11:15 AM 45.0 °F - 23.5 °F 43% 30.36 in 10.0 mi Calm Calm - N/A   Clear
11:35 AM 46.2 °F - 23.0 °F 40% 30.35 in 10.0 mi Calm Calm - N/A   Clear
11:55 AM 48.0 °F - 23.0 °F 37% 30.34 in 10.0 mi Calm Calm - N/A   Clear
12:15 PM 49.1 °F - 22.5 °F 35% 30.33 in 10.0 mi Calm Calm - N/A   Clear
12:35 PM 50.9 °F - 21.4 °F 31% 30.33 in 10.0 mi Calm Calm - N/A   Clear
12:55 PM 51.8 °F - 22.1 °F 31% 30.31 in 10.0 mi Calm Calm - N/A   Clear
1:15 PM 52.9 °F - 21.6 °F 29% 30.31 in 10.0 mi Calm Calm - N/A   Clear
1:35 PM 53.6 °F - 20.5 °F 27% 30.30 in 10.0 mi Calm Calm - N/A   Clear
1:55 PM 54.9 °F - 20.7 °F 26% 30.30 in 10.0 mi Calm Calm - N/A   Clear
2:15 PM 55.4 °F - 19.6 °F 25% 30.30 in 10.0 mi Calm Calm - N/A   Clear
2:35 PM 56.1 °F - 18.9 °F 23% 30.30 in 10.0 mi Calm Calm - N/A   Clear
2:55 PM 56.3 °F - 17.4 °F 22% 30.28 in 10.0 mi Calm Calm - N/A   Clear
3:15 PM 57.2 °F - 16.0 °F 20% 30.28 in 10.0 mi Calm Calm - N/A   Clear
3:35 PM 57.2 °F - 16.0 °F 20% 30.28 in 10.0 mi Calm Calm - N/A   Clear
3:55 PM 57.2 °F - 18.9 °F 22% 30.28 in 10.0 mi SSW 4.6 mph - N/A   Clear
4:15 PM 56.1 °F - 19.4 °F 24% 30.28 in 10.0 mi SW 4.6 mph - N/A   Clear
4:35 PM 53.8 °F - 20.3 °F 27% 30.28 in 10.0 mi SW 6.9 mph - N/A   Clear
4:55 PM 52.7 °F - 21.9 °F 30% 30.28 in 10.0 mi WSW 8.1 mph - N/A   Clear
5:15 PM 50.9 °F - 25.3 °F 37% 30.28 in 10.0 mi West 5.8 mph - N/A   Clear
5:35 PM 48.6 °F - 26.4 °F 42% 30.29 in 10.0 mi West 5.8 mph - N/A   Clear
5:55 PM 47.5 °F - 27.5 °F 46% 30.30 in 10.0 mi Calm Calm - N/A   Clear
6:35 PM 43.0 °F 40.3 °F 24.8 °F 49% 30.30 in 10.0 mi East 4.6 mph - N/A   Clear
6:55 PM 41.0 °F 39.0 °F 22.8 °F 48% 30.31 in 10.0 mi ESE 3.5 mph - N/A   Clear
7:15 PM 40.6 °F - 22.8 °F 49% 30.31 in 10.0 mi Calm Calm - N/A   Clear
7:35 PM 39.4 °F 35.2 °F 22.1 °F 50% 30.31 in 10.0 mi East 5.8 mph - N/A   Clear
7:55 PM 39.0 °F - 23.2 °F 53% 30.32 in 10.0 mi Calm Calm - N/A   Clear
8:15 PM 37.9 °F 34.4 °F 22.6 °F 54% 30.32 in 10.0 mi East 4.6 mph - N/A   Clear
8:35 PM 36.7 °F 32.9 °F 22.5 °F 56% 30.34 in 10.0 mi ESE 4.6 mph - N/A   Clear
8:55 PM 35.1 °F - 22.6 °F 61% 30.34 in 10.0 mi Calm Calm - N/A   Clear
9:15 PM 36.0 °F 32.1 °F 22.6 °F 58% 30.34 in 10.0 mi NNE 4.6 mph - N/A   Clear
9:35 PM 35.6 °F 30.7 °F 22.8 °F 60% 30.32 in 10.0 mi NNE 5.8 mph - N/A   Clear
9:55 PM 34.0 °F 29.8 °F 23.0 °F 64% 30.32 in 10.0 mi NNE 4.6 mph - N/A   Clear
10:15 PM 35.8 °F - 23.0 °F 60% 30.32 in 10.0 mi Calm Calm - N/A   Clear
10:35 PM 34.0 °F - 22.1 °F 62% 30.32 in 10.0 mi Calm Calm - N/A   Clear
10:55 PM 32.9 °F - 21.4 °F 63% 30.32 in 10.0 mi Calm Calm - N/A   Clear
11:15 PM 32.0 °F 28.7 °F 21.6 °F 65% 30.32 in 10.0 mi NE 3.5 mph - N/A   Clear
11:35 PM 32.2 °F 28.9 °F 21.9 °F 66% 30.32 in 10.0 mi NNE 3.5 mph - N/A   Clear
11:55 PM 32.2 °F 25.0 °F 22.3 °F 67% 30.32 in 10.0 mi NNE 8.1 mph - N/A   Clear